Country
Station

 

Weather  for  Mobile, Mobile Downtown Airport  -  United States    United States

  
26 °C (79 °F)
    
 
 

Current METAR for Mobile, Mobile Downtown Airport is :

KBFM 021106Z 07007KT 10SM FEW008 OVC017 26/24 A3009 RMK AO2 T02610239

 

This is a report for Mobile, Mobile Downtown Airport - United States.
 
The report was made 21 minutes ago, at 11:06 UTC .
The wind was blowing at a speed of 3.6 meters per second (8.1 miles per hour) from east/northeast (070°).
 
The temperature was 26 °C (79 °F), with a dew-point at 24 °C (75 °F).
The temperature felt like 28 °C (83 °F).
 
The atmospheric pressure was 1019 hPa (30.09 inHg).
The relative humidity was 88.8%.
 
There were a few clouds at a height of 244 meters (800 feet). The sky was overcast from a height of 518 meter (1700 feet)
 
The overall visibility was 16.1 kilometers (10.0 miles).
 

 
 
 
 

Country :   A   B   C   D   E   F   G   H   I   J   K   L   M   N   O   P   Q   R   S   T   U   V   W   Y   Z

 

Site Info  |  Disclaimer  |  Credits  |  Privacy
Contact us  |  Add to favorites
© 2013-2020 METARs - All rights reserved